Details for Norwegian Air International at GCLP




Go Back


Latest METAR
Local Time

GCLP 252200Z 36013KT 9999 FEW035 SCT040 19/13 Q1018 NOSIG

25/05/2018, 23:25:38

Description
Results
Norwegian Air International Logo
Number of Pilots based at GCLP
0 Pilots Based here
Number of Norwegian Air International Flights Departed from GCLP
0 Flights Departed
Number of Norwegian Air International Flights Arrived at GCLP
1 Flights Arrived
Number of Norwegian Air International Schedules Departing from GCLP
27 Schedules
Number of Norwegian Air International Schedules Arriving at GCLP
28 Schedules
Number of Norwegian Air International Schedules Departing from GCLP availible today
8 Schedules Today
Number of Norwegian Air International Schedules Arriving at GCLP availible today
8 Schedules Today
Average Landing Rate at GCLP
-190 fpm
Norwegian Air International Average Landing Rate at GCLP
-210 fpm
Total Fuel Purchased at GCLP by Norwegian Air International
0.00 kgs / 0.00 lbs

Pilots Based at GCLP


Pilot ID
Pilot Name
Pilot Rank
No. of Flights
No. of Flying Hours
There are no pilots assigned to this hub!   Will you be the first?
Content